Latest Coastal Weather Observations for Coles Point

IDS60701

Issued at 9:51 am CST Monday 29 August 2016 (issued every 10 minutes, with the page automatically refreshed every 10 minutes)

About coastal observations | Map of coastal stations | Coastal observations for SA | Marine services | Other Formats
Station Details ID: 018191 Name: COLES POINT Lat: -34.37 Lon: 135.37 Height: 28.0 m
Data from the previous 72 hours. | See also: Recent months at Coles Point
Date/Time
CST
Temp
°C
Wind Pressure Rain since
9am
mm
Weather Cloud Vis
km
Sea
Height
m
Swell
Dir  Spd
kts
Gust
kts
hPa Trend Height
m
Period
s
Dir
29/09:30am 16.8 NNE 16 23 1008.8 - 0.0 - - - - - - -
29/09:00am 15.5 NNE 12 16 1009.2 - 1.8 - - - - - - -
29/08:30am 13.5 NE 11 13 1009.4 - 1.8 - - - - - - -
29/08:00am 11.4 NE 11 11 1009.1 - 1.8 - - - - - - -
29/07:30am 11.0 NE 10 11 1008.8 - 1.8 - - - - - - -
29/07:00am 11.2 NE 10 11 1008.4 - 1.8 - - - - - - -
29/06:30am 11.7 NE 10 11 1008.2 - 1.8 - - - - - - -
29/06:00am 12.1 NNE 8 10 1008.2 - 1.8 Recent precip. - - - - - -
29/05:30am 12.7 NE 9 12 1008.0 - 1.6 - - - - - - -
29/05:00am 12.4 NNE 9 12 1007.9 - 1.4 - - - - - - -
29/04:30am 12.6 NNE 9 12 1007.9 - 0.8 - - - - - - -
29/04:00am 12.9 NE 10 13 1008.2 - 0.8 - - - - - - -
29/03:30am 13.0 NNE 12 18 1008.8 - 0.8 - - - - - - -
29/03:00am 13.7 NNE 11 14 1009.1 - 0.2 Rain - - - - - -
29/02:30am 14.5 NNE 12 16 1009.0 - 0.0 - - - - - - -
29/02:00am 14.2 NE 12 14 1009.0 - 0.0 - - - - - - -
29/01:30am 14.3 NE 14 18 1009.1 - 0.0 - - - - - - -
29/01:00am 14.5 NE 13 16 1009.4 - 0.0 - - - - - - -
29/12:30am 14.9 NE 14 17 1009.7 - 0.0 - - - - - - -
29/12:00am 15.0 NNE 15 21 1009.9 - 0.0 - - - - - - -
 
Date/Time
CST
Temp
°C
Wind Pressure Rain since
9am
mm
Weather Cloud Vis
km
Sea
Height
m
Swell
Dir  Spd
kts
Gust
kts
hPa Trend Height
m
Period
s
Dir
28/11:30pm 15.6 NNE 15 21 1009.8 - 0.0 - - - - - - -
28/11:00pm 16.0 NNE 10 19 1010.3 - 0.0 - - - - - - -
28/10:30pm 15.7 N 11 16 1011.1 - 0.0 - - - - - - -
28/10:00pm 16.4 N 13 18 1010.9 - 0.0 - - - - - - -
28/09:30pm 16.2 NNE 13 17 1010.0 - 0.0 - - - - - - -
28/09:00pm 16.1 NNE 15 21 1009.7 - 0.0 - - - - - - -
28/08:30pm 16.6 NNE 14 17 1009.4 - 0.0 - - - - - - -
28/08:00pm 16.4 NNE 14 20 1009.1 - 0.0 - - - - - - -
28/07:30pm 16.6 NNE 19 26 1008.8 - 0.0 - - - - - - -
28/07:00pm 16.3 NNE 20 26 1008.5 - 0.0 - - - - - - -
28/06:30pm 17.1 N 20 30 1008.5 - 0.0 - - - - - - -
28/06:10pm 18.2 N 20 31 1008.5 - 0.0 - - - - - - -
28/06:00pm 19.8 N 15 23 1008.3 - 0.0 - - - - - - -
28/05:30pm 18.9 N 9 14 1007.8 - 0.0 - - - - - - -
28/05:00pm 19.1 NNE 9 14 1007.7 - 0.0 - - - - - - -
28/04:30pm 19.5 NNE 9 12 1007.3 - 0.0 - - - - - - -
28/04:00pm 20.4 NNE 12 17 1007.0 - 0.0 - - - - - - -
28/03:30pm 20.6 NNE 14 20 1006.6 - 0.0 - - - - - - -
28/03:00pm 19.7 NNE 13 19 1006.4 - 0.0 - - - - - - -
28/02:30pm 20.5 NE 17 23 1006.1 - 0.0 - - - - - - -
28/02:00pm 20.9 NE 17 22 1006.7 - 0.0 - - - - - - -
28/01:30pm 20.5 NE 16 24 1007.1 - 0.0 - - - - - - -
28/01:00pm 20.8 NNE 15 21 1008.0 - 0.0 - - - - - - -
28/12:30pm 20.6 NE 16 21 1008.5 - 0.0 - - - - - - -
28/12:00pm 21.1 NNE 18 26 1009.0 - 0.0 - - - - - - -
28/11:30am 20.4 NNE 15 21 1009.9 - 0.0 - - - - - - -
28/11:00am 19.1 NE 14 21 1010.1 - 0.0 - - - - - - -
28/10:30am 17.7 NE 17 21 1010.5 - 0.0 - - - - - - -
28/10:00am 16.7 NE 16 21 1010.9 - 0.0 - - - - - - -
28/09:30am 15.5 NE 16 22 1011.1 - 0.0 - - - - - - -
28/09:00am 14.7 NNE 12 17 1011.5 - 0.0 - - - - - - -
28/08:30am 13.0 NNE 9 12 1011.7 - 0.0 - - - - - - -
28/08:00am 10.9 NNE 9 12 1011.8 - 0.0 - - - - - - -
28/07:30am 10.3 NNE 12 14 1011.7 - 0.0 - - - - - - -
28/07:00am 10.2 NNE 12 13 1011.9 - 0.0 - - - - - - -
28/06:30am 10.3 NNE 13 15 1011.7 - 0.0 - - - - - - -
28/06:00am 10.5 NNE 12 14 1011.9 - 0.0 - - - - - - -
28/05:30am 10.3 NNE 12 14 1012.0 - 0.0 - - - - - - -
28/05:00am 9.8 NNE 12 13 1012.0 - 0.0 - - - - - - -
28/04:30am 9.6 NE 13 14 1012.0 - 0.0 - - - - - - -
28/04:00am 9.5 NE 12 13 1012.2 - 0.0 - - - - - - -
28/03:30am 9.9 NE 13 14 1012.4 - 0.0 - - - - - - -
28/03:00am 9.3 NE 15 15 1012.5 - 0.0 - - - - - - -
28/02:30am 9.2 NE 14 15 1012.9 - 0.0 - - - - - - -
28/02:00am 9.3 NE 13 14 1013.2 - 0.0 - - - - - - -
28/01:30am 9.4 NE 12 16 1014.0 - 0.0 - - - - - - -
28/01:00am 9.6 NE 12 13 1014.3 - 0.0 - - - - - - -
28/12:30am 9.5 NE 11 12 1014.7 - 0.0 - - - - - - -
28/12:00am 10.8 NE 11 13 1014.9 - 0.0 - - - - - - -
 
Date/Time
CST
Temp
°C
Wind Pressure Rain since
9am
mm
Weather Cloud Vis
km
Sea
Height
m
Swell
Dir  Spd
kts
Gust
kts
hPa Trend Height
m
Period
s
Dir
27/11:30pm 10.5 NNE 11 12 1015.3 - 0.0 - - - - - - -
27/11:00pm 9.8 NE 9 11 1015.3 - 0.0 - - - - - - -
27/10:30pm 10.5 NNE 10 11 1015.6 - 0.0 - - - - - - -
27/10:00pm 10.3 NE 9 10 1015.9 - 0.0 - - - - - - -
27/09:30pm 10.4 NE 10 10 1015.8 - 0.0 - - - - - - -
27/09:00pm 10.5 NE 9 11 1015.9 - 0.0 - - - - - - -
27/08:30pm 10.9 NNE 9 9 1015.8 - 0.0 - - - - - - -
27/08:00pm 12.2 NNE 9 10 1015.8 - 0.0 - - - - - - -
27/07:30pm 12.7 NNE 8 9 1015.6 - 0.0 - - - - - - -
27/07:00pm 12.7 NNE 7 8 1015.2 - 0.0 - - - - - - -
27/06:30pm 14.4 NNE 6 7 1015.4 - 0.0 - - - - - - -
27/06:00pm 14.9 NNE 7 8 1015.1 - 0.0 - - - - - - -
27/05:30pm 17.1 N 10 13 1015.3 - 0.0 - - - - - - -
27/05:00pm 15.3 NNW 5 7 1015.2 - 0.0 - - - - - - -
27/04:30pm 17.6 NW 6 8 1015.2 - 0.0 - - - - - - -
27/04:00pm 17.6 NNW 6 9 1015.4 - 0.0 - - - - - - -
27/03:30pm 16.4 NNW 6 9 1015.6 - 0.0 - - - - - - -
27/03:00pm 18.9 NNW 9 12 1015.9 - 0.0 - - - - - - -
27/02:30pm 17.2 NNW 8 10 1016.2 - 0.0 - - - - - - -
27/02:00pm 17.9 NNW 12 16 1016.2 - 0.0 - - - - - - -
27/01:30pm 17.6 NNW 13 19 1016.7 - 0.0 - - - - - - -
27/01:00pm 17.8 NNW 14 20 1017.0 - 0.0 - - - - - - -
27/12:30pm 18.0 NNW 15 22 1017.6 - 0.0 - - - - - - -
27/12:00pm 17.1 NNW 13 18 1018.4 - 0.0 - - - - - - -
27/11:30am 17.5 NNW 15 22 1018.8 - 0.0 - - - - - - -
27/11:00am 16.8 N 13 19 1018.9 - 0.0 - - - - - - -
27/10:30am 15.9 N 13 18 1019.2 - 0.0 - - - - - - -
27/10:00am 14.2 N 14 17 1019.7 - 0.0 - - - - - - -
27/09:30am 11.6 NNE 12 19 1019.9 - 0.0 - - - - - - -
27/09:00am 10.1 NE 10 14 1020.2 - 0.2 - - - - - - -
27/08:30am 8.2 NE 13 17 1020.0 - 0.2 - - - - - - -
27/08:00am 6.8 NE 13 16 1019.8 - 0.2 - - - - - - -
27/07:30am 5.8 NE 16 19 1019.6 - 0.2 - - - - - - -
27/07:00am 5.4 NE 15 16 1019.6 - 0.2 - - - - - - -
27/06:30am 5.7 NE 15 17 1019.6 - 0.2 - - - - - - -
27/06:00am 5.4 NE 13 15 1019.6 - 0.2 - - - - - - -
27/05:30am 5.4 NE 13 15 1019.5 - 0.2 - - - - - - -
27/05:00am 5.8 NE 14 15 1019.4 - 0.2 - - - - - - -
27/04:30am 5.7 NE 13 15 1019.4 - 0.2 - - - - - - -
27/04:00am 6.1 NE 14 17 1019.4 - 0.2 - - - - - - -
27/03:30am 5.5 NE 12 13 1019.9 - 0.2 - - - - - - -
27/03:00am 5.5 NE 11 12 1020.0 - 0.2 - - - - - - -
27/02:30am 5.5 NE 11 13 1020.8 - 0.2 - - - - - - -
27/02:00am 5.5 NNE 11 12 1021.3 - 0.2 - - - - - - -
27/01:30am 5.7 NE 11 12 1021.5 - 0.2 - - - - - - -
27/01:00am 5.9 NE 11 12 1021.7 - 0.2 - - - - - - -
27/12:30am 6.2 NE 9 11 1021.9 - 0.2 - - - - - - -
27/12:00am 6.6 NNE 9 10 1021.9 - 0.2 - - - - - - -
 
Date/Time
CST
Temp
°C
Wind Pressure Rain since
9am
mm
Weather Cloud Vis
km
Sea
Height
m
Swell
Dir  Spd
kts
Gust
kts
hPa Trend Height
m
Period
s
Dir
26/11:30pm 7.2 NNE 9 10 1022.2 - 0.2 - - - - - - -
26/11:00pm 7.2 NNE 9 10 1022.4 - 0.2 - - - - - - -
26/10:30pm 7.2 NNE 9 10 1022.7 - 0.2 - - - - - - -
26/10:00pm 8.2 NNE 7 9 1023.3 - 0.2 - - - - - - -
26/09:30pm 8.0 NNE 6 8 1023.5 - 0.2 - - - - - - -
26/09:00pm 6.8 NE 2 5 1023.2 - 0.2 - - - - - - -
26/08:30pm 6.2 CALM 0 2 1023.5 - 0.2 - - - - - - -
26/08:00pm 6.0 CALM 0 2 1023.6 - 0.2 - - - - - - -
26/07:30pm 7.8 CALM 0 0 1023.5 - 0.2 - - - - - - -
26/07:00pm 9.1 WNW 1 4 1023.4 - 0.2 - - - - - - -
26/06:30pm 9.2 WNW 3 5 1023.2 - 0.2 - - - - - - -
26/06:00pm 10.8 WNW 4 5 1023.2 - 0.2 - - - - - - -
26/05:30pm 11.4 WNW 4 6 1023.4 - 0.2 - - - - - - -
26/05:00pm 12.6 WNW 5 7 1023.0 - 0.2 - - - - - - -
26/04:30pm 13.1 WNW 6 9 1023.1 - 0.2 - - - - - - -
26/04:00pm 13.9 NW 8 11 1022.9 - 0.2 - - - - - - -
26/03:30pm 13.8 WNW 8 11 1023.0 - 0.2 - - - - - - -
26/03:00pm 14.4 WNW 7 10 1023.2 - 0.2 - - - - - - -
26/02:30pm 14.1 WNW 8 10 1023.4 - 0.2 - - - - - - -
26/02:00pm 14.3 WNW 7 9 1023.7 - 0.2 - - - - - - -
26/01:30pm 14.4 WNW 6 10 1023.9 - 0.2 - - - - - - -
26/01:00pm 14.6 WNW 5 8 1024.4 - 0.2 - - - - - - -
26/12:30pm 14.5 NW 5 7 1024.8 - 0.0 - - - - - - -
26/12:00pm 13.7 NW 6 7 1025.3 - 0.0 - - - - - - -
26/11:30am 13.3 NW 5 7 1025.6 - 0.0 - - - - - - -
26/11:00am 13.1 NW 8 10 1025.9 - 0.0 - - - - - - -
26/10:30am 12.5 N 3 4 1026.0 - 0.0 - - - - - - -
26/10:00am 12.1 NNE 5 6 1026.1 - 0.0 - - - - - - -

Other Formats:

Comma delimited format used in spreadsheet applications
http://www.bom.gov.au/fwo/IDS60701/IDS60701.94658.axf

JavaScript Object Notation format (JSON) in row-major order
http://www.bom.gov.au/fwo/IDS60701/IDS60701.94658.json